createdAt,value
2022-09-13T00:02:12.677Z,-11232.06
2022-09-13T00:05:18.990Z,-11233.19
2022-09-13T00:08:25.668Z,-11231.63
2022-09-13T00:11:33.454Z,-11232.75
2022-09-13T00:14:39.818Z,-11227.13
2022-09-13T00:17:46.506Z,-11219.69
2022-09-13T00:20:52.964Z,-11203.78
2022-09-13T00:23:59.279Z,-11188.88
2022-09-13T00:27:08.724Z,-11195.22
2022-09-13T00:30:15.653Z,-11183.25
2022-09-13T00:33:21.746Z,-11176.22
2022-09-13T00:36:28.420Z,-11198.87
2022-09-13T00:39:34.866Z,-11202.38
2022-09-13T00:42:42.532Z,-11181.00
2022-09-13T00:45:50.004Z,-11185.94
2022-09-13T00:49:01.003Z,-11176.22
2022-09-13T00:52:10.327Z,-11197.88
2022-09-13T00:55:22.405Z,-11209.00
2022-09-13T00:58:35.102Z,-11202.25
2022-09-13T01:01:46.218Z,-11206.59
2022-09-13T01:04:52.803Z,-11206.19
2022-09-13T01:08:00.925Z,-11204.22
2022-09-13T01:11:13.552Z,-11180.03
2022-09-13T01:14:22.044Z,-11179.03
2022-09-13T01:17:29.735Z,-11178.47
2022-09-13T01:20:47.844Z,-11174.13
2022-09-13T01:24:24.322Z,-11175.25
2022-09-13T01:27:39.563Z,-11172.03
2022-09-13T01:30:55.655Z,-11140.53
2022-09-13T01:34:17.958Z,-11132.09
2022-09-13T01:37:44.843Z,-11134.63
2022-09-13T01:41:06.204Z,-11145.59
2022-09-13T01:44:28.571Z,-11141.09
2022-09-13T01:47:47.266Z,-11136.59
2022-09-13T01:51:02.569Z,-11152.06
2022-09-13T01:54:19.111Z,-11149.81
2022-09-13T01:57:33.047Z,-11156.56
2022-09-13T02:00:47.471Z,-11178.19
2022-09-13T02:03:59.755Z,-11178.47
2022-09-13T02:07:14.650Z,-11188.59
2022-09-13T02:10:25.538Z,-11183.25
2022-09-13T02:13:38.161Z,-11187.75
2022-09-13T02:16:51.119Z,-11190.44
2022-09-13T02:20:00.848Z,-11175.25
2022-09-13T02:23:11.657Z,-11194.09
2022-09-13T02:26:19.685Z,-11171.75
2022-09-13T02:29:29.036Z,-11172.31
2022-09-13T02:32:38.557Z,-11167.81
2022-09-13T02:35:52.403Z,-11174.53
2022-09-13T02:39:01.259Z,-11188.03
2022-09-13T02:42:15.647Z,-11189.88
2022-09-13T02:45:29.190Z,-11186.50
2022-09-13T02:48:44.668Z,-11186.06
2022-09-13T02:51:58.645Z,-11186.22
2022-09-13T02:55:17.417Z,-11189.44
2022-09-13T02:58:31.071Z,-11191.13
2022-09-13T03:01:39.810Z,-11179.31
2022-09-13T03:04:46.013Z,-11180.03
2022-09-13T03:07:54.323Z,-11167.25
2022-09-13T03:11:12.595Z,-11165.84
2022-09-13T03:14:28.943Z,-11134.63
2022-09-13T03:17:55.312Z,-11129.72
2022-09-13T03:21:09.306Z,-11146.44
2022-09-13T03:24:24.806Z,-11158.38
2022-09-13T03:27:36.757Z,-11170.91
2022-09-13T03:30:51.311Z,-11168.50
2022-09-13T03:34:00.906Z,-11169.78
2022-09-13T03:37:16.127Z,-11172.03
2022-09-13T03:40:35.916Z,-11175.66
2022-09-13T03:43:47.697Z,-11170.91
2022-09-13T03:46:58.882Z,-11174.69
2022-09-13T03:50:08.534Z,-11171.47
2022-09-13T03:53:20.706Z,-11158.53
2022-09-13T03:56:28.439Z,-11156.84
2022-09-13T03:59:35.475Z,-11132.38
2022-09-13T04:02:41.907Z,-11126.22
2022-09-13T04:05:48.611Z,-11112.16
2022-09-13T04:08:54.916Z,-11114.84
2022-09-13T04:12:02.809Z,-11120.31
2022-09-13T04:15:10.209Z,-11118.34
2022-09-13T04:18:16.174Z,-11115.53
2022-09-13T04:21:26.839Z,-11114.97
2022-09-13T04:24:33.618Z,-11142.78
2022-09-13T04:27:41.212Z,-11149.66
2022-09-13T04:30:47.632Z,-11175.38
2022-09-13T04:33:54.975Z,-11177.22
2022-09-13T04:37:01.332Z,-11185.38
2022-09-13T04:40:09.133Z,-11186.91
2022-09-13T04:43:16.449Z,-11177.63
2022-09-13T04:46:22.856Z,-11176.66
2022-09-13T04:49:28.767Z,-11191.41
2022-09-13T04:52:35.194Z,-11203.22
2022-09-13T04:55:41.483Z,-11192.69
2022-09-13T04:58:49.336Z,-11223.06
2022-09-13T05:01:56.178Z,-11204.50
2022-09-13T05:05:02.398Z,-11220.81
2022-09-13T05:08:08.672Z,-11213.34
2022-09-13T05:11:15.129Z,-11216.44
2022-09-13T05:14:22.618Z,-11234.47
2022-09-13T05:17:31.516Z,-11242.31
2022-09-13T05:20:37.602Z,-11231.34
2022-09-13T05:23:43.983Z,-11211.53
2022-09-13T05:26:50.577Z,-11227.13
2022-09-13T05:29:58.164Z,-11235.16
2022-09-13T05:33:04.343Z,-11238.38
2022-09-13T05:36:10.960Z,-11247.81
2022-09-13T05:39:31.988Z,-11253.44
2022-09-13T05:42:44.945Z,-11264.56
2022-09-13T05:45:53.387Z,-11266.13
2022-09-13T05:49:00.488Z,-11256.69
2022-09-13T05:52:06.987Z,-11264.84
2022-09-13T05:55:13.347Z,-11264.28
2022-09-13T05:58:19.865Z,-11254.84
2022-09-13T06:01:29.421Z,-11279.75
2022-09-13T06:04:37.094Z,-11289.63
2022-09-13T06:07:44.288Z,-11291.88
2022-09-13T06:10:56.331Z,-11297.91
2022-09-13T06:14:02.568Z,-11283.00
2022-09-13T06:17:10.133Z,-11296.94
2022-09-13T06:20:16.371Z,-11298.63
2022-09-13T06:23:22.758Z,-11314.81
2022-09-13T06:26:30.027Z,-11315.38
2022-09-13T06:29:36.203Z,-11317.63
2022-09-13T06:32:43.727Z,-11302.00
2022-09-13T06:35:49.867Z,-11310.44
2022-09-13T06:38:57.100Z,-11306.78
2022-09-13T06:42:03.423Z,-11322.00
2022-09-13T06:45:10.792Z,-11323.25
2022-09-13T06:48:20.908Z,-11318.34
2022-09-13T06:51:27.846Z,-11335.22
2022-09-13T06:54:34.167Z,-11323.13
2022-09-13T06:57:40.427Z,-11343.13
2022-09-13T07:00:46.867Z,-11344.97
2022-09-13T07:03:56.323Z,-11349.03
2022-09-13T07:07:02.715Z,-11364.41
2022-09-13T07:10:10.140Z,-11359.75
2022-09-13T07:13:16.219Z,-11376.66
2022-09-13T07:16:24.619Z,-11386.50
2022-09-13T07:19:31.907Z,-11387.50
2022-09-13T07:22:38.139Z,-11380.59
2022-09-13T07:25:44.286Z,-11370.44
2022-09-13T07:28:54.790Z,-11375.66
2022-09-13T07:32:00.917Z,-11378.75
2022-09-13T07:35:08.963Z,-11373.84
2022-09-13T07:38:14.883Z,-11399.75
2022-09-13T07:41:22.817Z,-11380.31
2022-09-13T07:44:28.915Z,-11391.31
2022-09-13T07:47:35.176Z,-11405.53
2022-09-13T07:50:43.507Z,-11409.34
2022-09-13T07:53:56.493Z,-11419.63
2022-09-13T07:57:03.736Z,-11412.16
2022-09-13T08:00:11.566Z,-11430.22
2022-09-13T08:03:18.058Z,-11429.78
2022-09-13T08:06:27.883Z,-11418.09
2022-09-13T08:09:34.154Z,-11429.94
2022-09-13T08:12:40.525Z,-11437.25
2022-09-13T08:15:46.954Z,-11443.03
2022-09-13T08:18:54.824Z,-11437.97
2022-09-13T08:22:02.511Z,-11437.81
2022-09-13T08:25:09.319Z,-11439.09
2022-09-13T08:28:17.929Z,-11446.00
2022-09-13T08:31:24.176Z,-11447.69
2022-09-13T08:34:30.366Z,-11448.81
2022-09-13T08:37:38.017Z,-11455.88
2022-09-13T08:40:50.584Z,-11444.88
2022-09-13T08:44:01.172Z,-11452.47
2022-09-13T08:47:28.578Z,-11464.19
2022-09-13T08:50:37.451Z,-11459.13
2022-09-13T08:53:50.372Z,-11478.28
2022-09-13T08:57:04.446Z,-11466.00
2022-09-13T09:00:20.985Z,-11464.31
2022-09-13T09:03:36.286Z,-11464.88
2022-09-13T09:06:43.855Z,-11468.00
2022-09-13T09:09:56.942Z,-11462.06
2022-09-13T09:13:07.608Z,-11474.75
2022-09-13T09:16:26.785Z,-11481.66
2022-09-13T09:19:37.860Z,-11470.66
2022-09-13T09:22:47.407Z,-11468.84
2022-09-13T09:25:59.281Z,-11472.09
2022-09-13T09:29:24.688Z,-11483.22
2022-09-13T09:32:49.243Z,-11475.06
2022-09-13T09:36:02.523Z,-11469.13
2022-09-13T09:39:13.018Z,-11486.03
2022-09-13T09:42:23.133Z,-11489.72
2022-09-13T09:45:32.119Z,-11490.84
2022-09-13T09:48:44.512Z,-11489.72
2022-09-13T09:51:50.824Z,-11486.75
2022-09-13T09:55:03.891Z,-11487.47
2022-09-13T09:58:12.985Z,-11503.13
2022-09-13T10:01:24.522Z,-11499.31
2022-09-13T10:04:31.127Z,-11489.16
2022-09-13T10:07:37.393Z,-11506.50
2022-09-13T10:10:45.847Z,-11503.97
2022-09-13T10:14:02.398Z,-11509.88
2022-09-13T10:17:18.019Z,-11525.84
2022-09-13T10:20:27.497Z,-11492.53
2022-09-13T10:23:34.602Z,-11547.13
2022-09-13T10:26:41.001Z,-11526.66
2022-09-13T10:29:52.625Z,-11523.56
2022-09-13T10:32:59.633Z,-11511.44
2022-09-13T10:36:09.592Z,-11530.91
2022-09-13T10:39:20.486Z,-11544.44
2022-09-13T10:42:30.062Z,-11526.53
2022-09-13T10:45:38.857Z,-11521.88
2022-09-13T10:48:48.079Z,-11521.59
2022-09-13T10:51:54.735Z,-11526.66
2022-09-13T10:55:26.927Z,-11521.59
2022-09-13T10:58:33.784Z,-11558.28
2022-09-13T11:01:49.214Z,-11561.38
2022-09-13T11:05:10.835Z,-11533.03
2022-09-13T11:08:34.627Z,-11549.25
2022-09-13T11:11:49.401Z,-11547.56
2022-09-13T11:15:05.800Z,-11532.03
2022-09-13T11:18:52.073Z,-11540.78
2022-09-13T11:22:17.774Z,-11543.59
2022-09-13T11:25:34.208Z,-11527.53
2022-09-13T11:28:54.082Z,-11537.69
2022-09-13T11:32:09.749Z,-11530.06
2022-09-13T11:35:48.389Z,-11551.50
2022-09-13T11:39:10.850Z,-11549.09
2022-09-13T11:42:31.192Z,-11558.28
2022-09-13T11:45:46.460Z,-11549.53
2022-09-13T11:49:12.924Z,-11548.25
2022-09-13T11:52:30.587Z,-11558.56
2022-09-13T11:55:42.739Z,-11552.06
2022-09-13T11:58:54.378Z,-11530.06
2022-09-13T12:02:05.542Z,-11559.81
2022-09-13T12:05:22.486Z,-11561.09
2022-09-13T12:08:33.623Z,-11535.97
2022-09-13T12:11:45.059Z,-11565.91
2022-09-13T12:15:01.116Z,-11553.63
2022-09-13T12:18:14.712Z,-11545.00
2022-09-13T12:21:24.245Z,-11546.00
2022-09-13T12:24:39.431Z,-11553.47
2022-09-13T12:27:54.294Z,-11551.22
2022-09-13T12:31:06.088Z,-11557.44
2022-09-13T12:34:21.503Z,-11548.97
2022-09-13T12:38:03.452Z,-11535.69
2022-09-13T12:41:30.733Z,-11537.97
2022-09-13T12:44:50.680Z,-11554.91
2022-09-13T12:48:16.871Z,-11542.19
2022-09-13T12:51:37.970Z,-11543.88
2022-09-13T12:55:19.735Z,-11554.75
2022-09-13T12:59:04.524Z,-11556.31
2022-09-13T13:02:28.650Z,-11541.78
2022-09-13T13:05:36.748Z,-11536.56
2022-09-13T13:08:52.635Z,-11546.44
2022-09-13T13:11:59.829Z,-11561.38
2022-09-13T13:15:49.918Z,-11544.31
2022-09-13T13:18:58.367Z,-11539.66
2022-09-13T13:22:37.843Z,-11533.59
2022-09-13T13:26:13.537Z,-11552.63
2022-09-13T13:29:23.349Z,-11558.28
2022-09-13T13:32:30.818Z,-11570.97
2022-09-13T13:35:36.949Z,-11545.59
2022-09-13T13:38:48.936Z,-11558.13
2022-09-13T13:41:56.841Z,-11562.78
2022-09-13T13:45:18.025Z,-11574.38
2022-09-13T13:48:39.107Z,-11545.00
2022-09-13T13:51:45.085Z,-11537.97
2022-09-13T13:55:04.510Z,-11546.16
2022-09-13T13:58:29.487Z,-11545.59
2022-09-13T14:01:40.796Z,-11541.63
2022-09-13T14:05:06.984Z,-11547.41
2022-09-13T14:08:32.966Z,-11530.47
2022-09-13T14:11:51.221Z,-11544.16
2022-09-13T14:15:08.450Z,-11560.41
2022-09-13T14:18:40.551Z,-11556.31
2022-09-13T14:22:07.644Z,-11535.13
2022-09-13T14:25:25.110Z,-11516.09
2022-09-13T14:28:33.374Z,-11545.88
2022-09-13T14:31:39.664Z,-11544.72
2022-09-13T14:34:54.495Z,-11548.41
2022-09-13T14:38:19.708Z,-11586.66
2022-09-13T14:41:32.737Z,-11596.66
2022-09-13T14:44:39.387Z,-11617.72
2022-09-13T14:47:53.697Z,-11602.59
2022-09-13T14:51:03.906Z,-11528.22
2022-09-13T14:54:18.297Z,-11513.28
2022-09-13T14:57:30.410Z,-11494.09
2022-09-13T15:00:46.919Z,-11500.56
2022-09-13T15:03:53.497Z,-11498.88
2022-09-13T15:07:10.883Z,-11483.22
2022-09-13T15:10:26.829Z,-11482.09
2022-09-13T15:13:35.298Z,-11483.50
2022-09-13T15:16:49.256Z,-11474.63
2022-09-13T15:20:05.300Z,-11484.50
2022-09-13T15:23:16.810Z,-11478.16
2022-09-13T15:26:26.729Z,-11479.69
2022-09-13T15:29:35.088Z,-11475.63
2022-09-13T15:32:43.200Z,-11473.50
2022-09-13T15:35:50.052Z,-11467.84
2022-09-13T15:39:05.804Z,-11475.91
2022-09-13T15:42:13.923Z,-11474.63
2022-09-13T15:45:22.079Z,-11474.06
2022-09-13T15:48:30.663Z,-11462.91
2022-09-13T15:51:38.951Z,-11461.78
2022-09-13T15:54:49.339Z,-11458.81
2022-09-13T15:57:56.988Z,-11452.75
2022-09-13T16:01:04.159Z,-11453.91
2022-09-13T16:04:10.132Z,-11449.09
2022-09-13T16:07:17.500Z,-11445.72
2022-09-13T16:10:24.443Z,-11442.75
2022-09-13T16:13:31.814Z,-11443.19
2022-09-13T16:16:37.744Z,-11435.41
2022-09-13T16:19:44.056Z,-11433.31
2022-09-13T16:22:50.730Z,-11430.91
2022-09-13T16:26:01.593Z,-11428.53
2022-09-13T16:29:09.837Z,-11425.41
2022-09-13T16:32:16.123Z,-11425.56
2022-09-13T16:35:22.478Z,-11426.25
2022-09-13T16:38:28.935Z,-11426.25
2022-09-13T16:41:35.366Z,-11421.59
2022-09-13T16:44:43.542Z,-11421.19
2022-09-13T16:47:49.907Z,-11419.06
2022-09-13T16:50:56.100Z,-11419.50
2022-09-13T16:54:02.918Z,-11416.25
2022-09-13T16:57:10.580Z,-11414.84
2022-09-13T17:00:20.163Z,-11412.59
2022-09-13T17:03:26.840Z,-11412.03
2022-09-13T17:06:32.857Z,-11411.88
2022-09-13T17:09:40.720Z,-11410.75
2022-09-13T17:12:46.738Z,-11410.47
2022-09-13T17:15:56.690Z,-11412.16
2022-09-13T17:19:06.282Z,-11409.63
2022-09-13T17:22:13.099Z,-11406.53
2022-09-13T17:25:20.947Z,-11404.28
2022-09-13T17:28:27.819Z,-11400.19
2022-09-13T17:31:35.804Z,-11398.78
2022-09-13T17:34:42.446Z,-11391.03
2022-09-13T17:37:48.804Z,-11391.72
2022-09-13T17:41:02.396Z,-11390.59
2022-09-13T17:44:09.218Z,-11391.72
2022-09-13T17:47:17.124Z,-11390.59
2022-09-13T17:50:23.643Z,-11390.75
2022-09-13T17:53:29.708Z,-11388.91
2022-09-13T17:56:37.424Z,-11384.81
2022-09-13T17:59:43.808Z,-11384.81
2022-09-13T18:02:51.250Z,-11378.91
2022-09-13T18:05:58.224Z,-11373.41
2022-09-13T18:09:04.783Z,-11367.78
2022-09-13T18:12:11.871Z,-11357.50
2022-09-13T18:15:18.469Z,-11356.94
2022-09-13T18:18:26.397Z,-11354.66
2022-09-13T18:21:32.512Z,-11355.66
2022-09-13T18:24:39.018Z,-11355.78
2022-09-13T18:27:45.772Z,-11352.97
2022-09-13T18:30:56.318Z,-11350.16
2022-09-13T18:34:06.491Z,-11350.16
2022-09-13T18:37:12.948Z,-11350.16
2022-09-13T18:40:19.431Z,-11352.97
2022-09-13T18:43:25.775Z,-11346.50
2022-09-13T18:46:33.125Z,-11347.06
2022-09-13T18:49:40.600Z,-11344.66
2022-09-13T18:52:46.760Z,-11340.44
2022-09-13T18:55:53.231Z,-11344.81
2022-09-13T18:59:01.736Z,-11334.94
2022-09-13T19:02:07.987Z,-11329.59
2022-09-13T19:05:15.742Z,-11328.06
2022-09-13T19:08:22.270Z,-11319.75
2022-09-13T19:11:46.496Z,-11319.47
2022-09-13T19:14:53.959Z,-11318.19
2022-09-13T19:18:00.390Z,-11314.25
2022-09-13T19:21:09.838Z,-11309.31
2022-09-13T19:24:19.414Z,-11305.38
2022-09-13T19:27:26.812Z,-11307.63
2022-09-13T19:30:35.280Z,-11295.81
2022-09-13T19:33:42.294Z,-11292.44
2022-09-13T19:36:52.622Z,-11296.38
2022-09-13T19:39:59.293Z,-11291.59
2022-09-13T19:43:05.916Z,-11292.84
2022-09-13T19:46:13.825Z,-11295.53
2022-09-13T19:49:20.029Z,-11285.97
2022-09-13T19:52:27.719Z,-11287.22
2022-09-13T19:55:33.843Z,-11283.41
2022-09-13T19:58:40.368Z,-11284.97
2022-09-13T20:01:47.982Z,-11284.28
2022-09-13T20:04:54.275Z,-11275.69
2022-09-13T20:08:02.306Z,-11276.53
2022-09-13T20:11:10.125Z,-11277.22
2022-09-13T20:14:19.352Z,-11273.44
2022-09-13T20:17:26.403Z,-11264.72
2022-09-13T20:20:35.527Z,-11271.31
2022-09-13T20:23:44.181Z,-11267.66
2022-09-13T20:26:52.531Z,-11270.19
2022-09-13T20:29:58.847Z,-11264.00
2022-09-13T20:33:05.510Z,-11248.53
2022-09-13T20:36:15.113Z,-11254.72
2022-09-13T20:39:22.662Z,-11256.81
2022-09-13T20:42:29.264Z,-11265.00
2022-09-13T20:45:35.687Z,-11263.59
2022-09-13T20:48:44.606Z,-11254.16
2022-09-13T20:51:51.071Z,-11257.25
2022-09-13T20:54:59.357Z,-11257.53
2022-09-13T20:58:06.127Z,-11253.59
2022-09-13T21:01:15.140Z,-11255.56
2022-09-13T21:04:22.675Z,-11249.09
2022-09-13T21:07:46.146Z,-11252.31
2022-09-13T21:11:03.530Z,-11245.44
2022-09-13T21:14:10.383Z,-11241.47
2022-09-13T21:17:16.790Z,-11246.56
2022-09-13T21:20:23.251Z,-11231.63
2022-09-13T21:23:31.975Z,-11238.94
2022-09-13T21:26:42.394Z,-11219.13
2022-09-13T21:29:48.805Z,-11231.91
2022-09-13T21:32:54.895Z,-11230.22
2022-09-13T21:36:03.311Z,-11208.72
2022-09-13T21:39:09.586Z,-11209.28
2022-09-13T21:42:17.399Z,-11197.47
2022-09-13T21:45:24.050Z,-11221.94
2022-09-13T21:48:32.892Z,-11196.75
2022-09-13T21:51:40.354Z,-11205.34
2022-09-13T21:54:46.593Z,-11196.06
2022-09-13T21:57:54.408Z,-11194.38
2022-09-13T22:01:06.348Z,-11191.84
2022-09-13T22:04:16.810Z,-11202.38
2022-09-13T22:07:23.051Z,-11210.25
2022-09-13T22:10:29.649Z,-11207.72
2022-09-13T22:13:45.471Z,-11217.72
2022-09-13T22:16:53.320Z,-11219.41
2022-09-13T22:19:59.767Z,-11214.75
2022-09-13T22:23:06.407Z,-11209.84
2022-09-13T22:26:13.859Z,-11215.31
2022-09-13T22:29:22.441Z,-11218.41
2022-09-13T22:32:30.708Z,-11216.88
2022-09-13T22:35:36.920Z,-11218.13
2022-09-13T22:38:44.540Z,-11219.53
2022-09-13T22:41:50.849Z,-11207.88
2022-09-13T22:44:58.397Z,-11205.75
2022-09-13T22:48:04.271Z,-11178.47
2022-09-13T22:51:12.639Z,-11202.38
2022-09-13T22:54:20.144Z,-11184.94
2022-09-13T22:57:26.479Z,-11165.69
2022-09-13T23:00:34.340Z,-11155.72
2022-09-13T23:03:41.845Z,-11164.44
2022-09-13T23:06:48.826Z,-11160.50
2022-09-13T23:09:55.023Z,-11156.13
2022-09-13T23:13:01.723Z,-11180.16
2022-09-13T23:16:14.573Z,-11158.53
2022-09-13T23:19:22.609Z,-11146.44
2022-09-13T23:22:28.896Z,-11157.81
2022-09-13T23:25:35.795Z,-11169.50
2022-09-13T23:28:42.187Z,-11172.31
2022-09-13T23:31:50.768Z,-11156.28
2022-09-13T23:34:56.935Z,-11187.47
2022-09-13T23:38:03.453Z,-11157.97
2022-09-13T23:41:10.886Z,-11156.84
2022-09-13T23:44:17.422Z,-11158.09
2022-09-13T23:47:25.176Z,-11161.06
2022-09-13T23:50:32.066Z,-11167.66
2022-09-13T23:53:38.582Z,-11150.22
2022-09-13T23:56:45.227Z,-11158.53
2022-09-13T23:59:51.471Z,-11141.38
